Tinkerbell Mar — 9HBA9 — position and weather

sailwx.info

Track history (hours):
 
Tides and Currents Weather Stations Pressure Air Temp Water Temp Dewpoint Dewpoint Depression Visibility Wind Speed Wind Dir Waves Ship Positions

Tinkerbell Mar

Last reported at 2018-Feb-17 15:16 UTC. Time now 2018-Feb-19 12:23 UTC.
Position N 37°41' E 025°51'.

Length 102 m; draft 4.7 m.

Type: Ship. MMSI: 256707000.

Date/timePositionNaut miles runAvg speedWind from/ knotsBaromVisibWave heightAir tempDewpointWater temp
2018-Feb-17 15:16N 37°41' E 025°51'411.5
2018-Feb-17 14:58N 37°38' E 025°52'511.5
2018-Feb-17 14:30N 37°33' E 025°52'510.5
2018-Feb-17 14:00N 37°28' E 025°54'  
2018-Feb-14 22:11N 34°38' E 033°03'2 8.7
2018-Feb-14 21:58N 34°39' E 033°02'1 1.7
2018-Feb-14 21:30N 34°39' E 033°01'0 0.0
2018-Feb-14 21:00N 34°39' E 033°01'0 0.0
2018-Feb-14 20:30N 34°39' E 033°01'0 0.0
2018-Feb-14 20:00N 34°39' E 033°01'0 0.0
2018-Feb-14 19:30N 34°39' E 033°01'0 0.0
2018-Feb-14 19:00N 34°39' E 033°01'1 1.1
2018-Feb-14 18:30N 34°39' E 033°02'48210.9
2018-Feb-12 22:19N 37°37' E 023°47'412.4
2018-Feb-12 22:00N 37°39' E 023°43'612.2
2018-Feb-12 21:30N 37°45' E 023°39'612.2
2018-Feb-12 21:00N 37°51' E 023°37'611.2
2018-Feb-12 20:30N 37°56' E 023°36'1 2.8
2018-Feb-12 20:00N 37°58' E 023°36'0 0.0
2018-Feb-12 19:27N 37°58' E 023°36'0 0.0
2018-Feb-12 19:00N 37°58' E 023°36'0 0.0
2018-Feb-12 18:31N 37°58' E 023°36'0 0.0
2018-Feb-12 18:00N 37°58' E 023°36'0 0.0
2018-Feb-12 17:31N 37°58' E 023°36'0 0.0
2018-Feb-12 17:00N 37°58' E 023°36'0 0.0
2018-Feb-12 16:31N 37°58' E 023°36'0 0.0
2018-Feb-12 16:00N 37°58' E 023°36'0 0.0
2018-Feb-12 15:31N 37°58' E 023°36'0 0.0
2018-Feb-12 15:00N 37°58' E 023°36'0 0.0
2018-Feb-12 14:30N 37°58' E 023°36'0 0.4
2018-Feb-12 14:00N 37°57' E 023°36'2 4.8
2018-Feb-12 13:30N 37°55' E 023°35'1 2.7
2018-Feb-12 12:58N 37°55' E 023°33'0 0.0
2018-Feb-12 12:28N 37°55' E 023°33'0 0.1
2018-Feb-12 11:58N 37°55' E 023°33'0 0.0
2018-Feb-12 11:28N 37°55' E 023°33'0 0.1
2018-Feb-12 10:58N 37°55' E 023°33'0 0.0
2018-Feb-12 10:28N 37°55' E 023°33'0 0.0
2018-Feb-12 09:58N 37°55' E 023°33'0 0.0
2018-Feb-12 09:28N 37°55' E 023°33'0 0.1
2018-Feb-12 08:58N 37°55' E 023°33'0 0.0
2018-Feb-12 08:28N 37°55' E 023°33'0 0.0
2018-Feb-12 07:58N 37°55' E 023°33'0 0.1
2018-Feb-12 07:28N 37°55' E 023°33'0 0.0
2018-Feb-12 06:58N 37°55' E 023°33'0 0.0
2018-Feb-12 06:28N 37°55' E 023°33'0 0.0
2018-Feb-12 05:58N 37°55' E 023°33'0 0.0
2018-Feb-12 05:28N 37°55' E 023°33'0 0.0
2018-Feb-12 04:58N 37°55' E 023°33'0 0.1
2018-Feb-12 04:28N 37°55' E 023°33'0 0.0
2018-Feb-12 03:58N 37°55' E 023°33'0 0.0
2018-Feb-12 03:28N 37°55' E 023°33'0 0.1
2018-Feb-12 02:58N 37°55' E 023°33'0 0.0
2018-Feb-12 02:28N 37°55' E 023°33'0 0.0
2018-Feb-12 01:58N 37°55' E 023°33'0 0.0
2018-Feb-12 01:28N 37°55' E 023°33'0 0.0
2018-Feb-12 00:58N 37°55' E 023°33'0 0.0
2018-Feb-12 00:28N 37°55' E 023°33'0 0.0
2018-Feb-11 23:58N 37°55' E 023°33'0 0.1
2018-Feb-11 23:28N 37°55' E 023°33'0 0.1
2018-Feb-11 22:58N 37°55' E 023°33'0 0.0
2018-Feb-11 22:25N 37°55' E 023°33'0 0.0
2018-Feb-11 21:58N 37°55' E 023°33'0 0.0
2018-Feb-11 21:28N 37°55' E 023°33'0 0.0
2018-Feb-11 20:58N 37°55' E 023°33'0 0.0
2018-Feb-11 20:28N 37°55' E 023°33'0 0.0
2018-Feb-11 19:58N 37°55' E 023°33'0 0.0
2018-Feb-11 19:28N 37°55' E 023°33'0 0.0
2018-Feb-11 18:58N 37°55' E 023°33'0 0.0
2018-Feb-11 18:28N 37°55' E 023°33'0 0.1
2018-Feb-11 17:58N 37°55' E 023°33'0 0.1
2018-Feb-11 17:28N 37°55' E 023°33'0 0.0
2018-Feb-11 16:58N 37°55' E 023°33'0 0.0
2018-Feb-11 16:28N 37°55' E 023°33'0 0.1
2018-Feb-11 15:58N 37°55' E 023°33'0 0.1
2018-Feb-11 15:28N 37°55' E 023°33'0 0.1
2018-Feb-11 14:58N 37°55' E 023°33'0 0.1
2018-Feb-11 14:28N 37°55' E 023°33'0 0.1
2018-Feb-11 13:58N 37°55' E 023°33'0 0.1
2018-Feb-11 13:28N 37°55' E 023°33'0 0.0
2018-Feb-11 12:58N 37°55' E 023°33'0 0.0
2018-Feb-11 12:28N 37°55' E 023°33'0 0.0
2018-Feb-11 11:58N 37°55' E 023°33'0 0.0
2018-Feb-11 11:28N 37°55' E 023°33'0 0.1
2018-Feb-11 10:58N 37°55' E 023°33'0 0.0
2018-Feb-11 10:25N 37°55' E 023°33'0 0.0
2018-Feb-11 09:58N 37°55' E 023°33'0 0.0
2018-Feb-11 09:28N 37°55' E 023°33'0 0.1
2018-Feb-11 08:58N 37°55' E 023°33'0 0.0
2018-Feb-11 08:28N 37°55' E 023°33'0 0.0
2018-Feb-11 07:58N 37°55' E 023°33'0 0.0
2018-Feb-11 07:28N 37°55' E 023°33'0 0.1
2018-Feb-11 06:58N 37°55' E 023°33'0 0.1
2018-Feb-11 06:28N 37°55' E 023°33'0 0.0
2018-Feb-11 05:58N 37°55' E 023°33'0 0.0
2018-Feb-11 05:28N 37°55' E 023°33'0 0.0
2018-Feb-11 04:58N 37°55' E 023°33'0 0.0
2018-Feb-11 04:28N 37°55' E 023°33'0 0.0
2018-Feb-11 03:58N 37°55' E 023°33'0 0.0
2018-Feb-11 03:28N 37°55' E 023°33'0 0.0
2018-Feb-11 02:58N 37°55' E 023°33'0 0.0
2018-Feb-11 02:28N 37°55' E 023°33'0 0.0
2018-Feb-11 01:58N 37°55' E 023°33'0 0.0
2018-Feb-11 01:28N 37°55' E 023°33'0 0.1
2018-Feb-11 00:58N 37°55' E 023°33'0 0.0
2018-Feb-11 00:28N 37°55' E 023°33'0 0.0
2018-Feb-10 23:58N 37°55' E 023°33'0 0.0
2018-Feb-10 23:28N 37°55' E 023°33'0 0.0
2018-Feb-10 22:58N 37°55' E 023°33'0 0.0
2018-Feb-10 22:28N 37°55' E 023°33'0 0.1
2018-Feb-10 21:58N 37°55' E 023°33'0 0.1
2018-Feb-10 21:28N 37°55' E 023°33'0 0.1
2018-Feb-10 20:58N 37°55' E 023°33'0 0.1
2018-Feb-10 20:28N 37°55' E 023°33'0 0.0
2018-Feb-10 19:58N 37°55' E 023°33'0 0.0
2018-Feb-10 19:28N 37°55' E 023°33'0 0.1
2018-Feb-10 18:58N 37°55' E 023°33'0 0.0
2018-Feb-10 18:28N 37°55' E 023°33'0 0.0
2018-Feb-10 17:58N 37°55' E 023°33'0 0.0
2018-Feb-10 17:28N 37°55' E 023°33'0 0.0
2018-Feb-10 16:58N 37°55' E 023°33'0 0.1
2018-Feb-10 16:28N 37°55' E 023°33'0 0.1
2018-Feb-10 15:58N 37°55' E 023°33'0 0.0
2018-Feb-10 15:28N 37°55' E 023°33'0 0.1
2018-Feb-10 14:58N 37°55' E 023°33'0 0.0
2018-Feb-10 14:28N 37°55' E 023°33'0 0.0
2018-Feb-10 13:58N 37°55' E 023°33'0 0.0
2018-Feb-10 13:28N 37°55' E 023°33'0 0.1
2018-Feb-10 12:58N 37°55' E 023°33'0 0.0
2018-Feb-10 12:28N 37°55' E 023°33'0 0.1
2018-Feb-10 11:58N 37°55' E 023°33'0 0.0
2018-Feb-10 11:28N 37°55' E 023°33'0 0.1
2018-Feb-10 10:58N 37°55' E 023°33'0 0.0
2018-Feb-10 10:28N 37°55' E 023°33'0 0.0
2018-Feb-10 09:58N 37°55' E 023°33'0 0.0
2018-Feb-10 09:28N 37°55' E 023°33'0 0.0
2018-Feb-10 08:58N 37°55' E 023°33'0 0.1
2018-Feb-10 08:28N 37°55' E 023°33'0 0.0
2018-Feb-10 07:58N 37°55' E 023°33'0 0.1
2018-Feb-10 07:28N 37°55' E 023°33'0 0.0
2018-Feb-10 06:58N 37°55' E 023°33'0 0.0
2018-Feb-10 06:28N 37°55' E 023°33'0 0.0
2018-Feb-10 05:58N 37°55' E 023°33'0 0.0
2018-Feb-10 05:28N 37°55' E 023°33'0 0.0
2018-Feb-10 04:58N 37°55' E 023°33'0 0.0
2018-Feb-10 04:28N 37°55' E 023°33'0 0.0
2018-Feb-10 03:58N 37°55' E 023°33'0 0.0
2018-Feb-10 03:28N 37°55' E 023°33'0 0.0
2018-Feb-10 02:58N 37°55' E 023°33'0 0.0
2018-Feb-10 02:28N 37°55' E 023°33'0 0.0
2018-Feb-10 01:58N 37°55' E 023°33'0 0.0
2018-Feb-10 01:28N 37°55' E 023°33'0 0.0
2018-Feb-10 00:58N 37°55' E 023°33'0 0.0
2018-Feb-10 00:28N 37°55' E 023°33'0 0.1
2018-Feb-09 23:58N 37°55' E 023°33'0 0.0
2018-Feb-09 23:28N 37°55' E 023°33'0 0.0
2018-Feb-09 22:58N 37°55' E 023°33'0 0.1
2018-Feb-09 22:46N 37°55' E 023°33'12 1.3
2018-Feb-09 13:30N 37°45' E 023°42'612.5
2018-Feb-09 13:00N 37°40' E 023°46'48012.1
2018-Feb-07 21:28N 34°31' E 032°53'  
Track history (hours):
 
Tides and Currents Weather Stations Pressure Air Temp Water Temp Dewpoint Dewpoint Depression Visibility Wind Speed Wind Dir Waves Ship Positions

Tinkerbell Mar

Last reported at 2018-Feb-17 15:16 UTC. Time now 2018-Feb-19 12:23 UTC.
Position N 37°41' E 025°51'.

Length 102 m; draft 4.7 m.

Type: Ship. MMSI: 256707000.

Date/timePositionNaut miles runAvg speedWind from/ knotsBaromVisibWave heightAir tempDewpointWater temp
2018-Feb-17 15:16N 37°41' E 025°51'411.5
2018-Feb-17 14:58N 37°38' E 025°52'511.5
2018-Feb-17 14:30N 37°33' E 025°52'510.5
2018-Feb-17 14:00N 37°28' E 025°54'  
2018-Feb-14 22:11N 34°38' E 033°03'2 8.7
2018-Feb-14 21:58N 34°39' E 033°02'1 1.7
2018-Feb-14 21:30N 34°39' E 033°01'0 0.0
2018-Feb-14 21:00N 34°39' E 033°01'0 0.0
2018-Feb-14 20:30N 34°39' E 033°01'0 0.0
2018-Feb-14 20:00N 34°39' E 033°01'0 0.0
2018-Feb-14 19:30N 34°39' E 033°01'0 0.0
2018-Feb-14 19:00N 34°39' E 033°01'1 1.1
2018-Feb-14 18:30N 34°39' E 033°02'48210.9
2018-Feb-12 22:19N 37°37' E 023°47'412.4
2018-Feb-12 22:00N 37°39' E 023°43'612.2
2018-Feb-12 21:30N 37°45' E 023°39'612.2
2018-Feb-12 21:00N 37°51' E 023°37'611.2
2018-Feb-12 20:30N 37°56' E 023°36'1 2.8
2018-Feb-12 20:00N 37°58' E 023°36'0 0.0
2018-Feb-12 19:27N 37°58' E 023°36'0 0.0
2018-Feb-12 19:00N 37°58' E 023°36'0 0.0
2018-Feb-12 18:31N 37°58' E 023°36'0 0.0
2018-Feb-12 18:00N 37°58' E 023°36'0 0.0
2018-Feb-12 17:31N 37°58' E 023°36'0 0.0
2018-Feb-12 17:00N 37°58' E 023°36'0 0.0
2018-Feb-12 16:31N 37°58' E 023°36'0 0.0
2018-Feb-12 16:00N 37°58' E 023°36'0 0.0
2018-Feb-12 15:31N 37°58' E 023°36'0 0.0
2018-Feb-12 15:00N 37°58' E 023°36'0 0.0
2018-Feb-12 14:30N 37°58' E 023°36'0 0.4
2018-Feb-12 14:00N 37°57' E 023°36'2 4.8
2018-Feb-12 13:30N 37°55' E 023°35'1 2.7
2018-Feb-12 12:58N 37°55' E 023°33'0 0.0
2018-Feb-12 12:28N 37°55' E 023°33'0 0.1
2018-Feb-12 11:58N 37°55' E 023°33'0 0.0
2018-Feb-12 11:28N 37°55' E 023°33'0 0.1
2018-Feb-12 10:58N 37°55' E 023°33'0 0.0
2018-Feb-12 10:28N 37°55' E 023°33'0 0.0
2018-Feb-12 09:58N 37°55' E 023°33'0 0.0
2018-Feb-12 09:28N 37°55' E 023°33'0 0.1
2018-Feb-12 08:58N 37°55' E 023°33'0 0.0
2018-Feb-12 08:28N 37°55' E 023°33'0 0.0
2018-Feb-12 07:58N 37°55' E 023°33'0 0.1
2018-Feb-12 07:28N 37°55' E 023°33'0 0.0
2018-Feb-12 06:58N 37°55' E 023°33'0 0.0
2018-Feb-12 06:28N 37°55' E 023°33'0 0.0
2018-Feb-12 05:58N 37°55' E 023°33'0 0.0
2018-Feb-12 05:28N 37°55' E 023°33'0 0.0
2018-Feb-12 04:58N 37°55' E 023°33'0 0.1
2018-Feb-12 04:28N 37°55' E 023°33'0 0.0
2018-Feb-12 03:58N 37°55' E 023°33'0 0.0
2018-Feb-12 03:28N 37°55' E 023°33'0 0.1
2018-Feb-12 02:58N 37°55' E 023°33'0 0.0
2018-Feb-12 02:28N 37°55' E 023°33'0 0.0
2018-Feb-12 01:58N 37°55' E 023°33'0 0.0
2018-Feb-12 01:28N 37°55' E 023°33'0 0.0
2018-Feb-12 00:58N 37°55' E 023°33'0 0.0
2018-Feb-12 00:28N 37°55' E 023°33'0 0.0
2018-Feb-11 23:58N 37°55' E 023°33'0 0.1
2018-Feb-11 23:28N 37°55' E 023°33'0 0.1
2018-Feb-11 22:58N 37°55' E 023°33'0 0.0
2018-Feb-11 22:25N 37°55' E 023°33'0 0.0
2018-Feb-11 21:58N 37°55' E 023°33'0 0.0
2018-Feb-11 21:28N 37°55' E 023°33'0 0.0
2018-Feb-11 20:58N 37°55' E 023°33'0 0.0
2018-Feb-11 20:28N 37°55' E 023°33'0 0.0
2018-Feb-11 19:58N 37°55' E 023°33'0 0.0
2018-Feb-11 19:28N 37°55' E 023°33'0 0.0
2018-Feb-11 18:58N 37°55' E 023°33'0 0.0
2018-Feb-11 18:28N 37°55' E 023°33'0 0.1
2018-Feb-11 17:58N 37°55' E 023°33'0 0.1
2018-Feb-11 17:28N 37°55' E 023°33'0 0.0
2018-Feb-11 16:58N 37°55' E 023°33'0 0.0
2018-Feb-11 16:28N 37°55' E 023°33'0 0.1
2018-Feb-11 15:58N 37°55' E 023°33'0 0.1
2018-Feb-11 15:28N 37°55' E 023°33'0 0.1
2018-Feb-11 14:58N 37°55' E 023°33'0 0.1
2018-Feb-11 14:28N 37°55' E 023°33'0 0.1
2018-Feb-11 13:58N 37°55' E 023°33'0 0.1
2018-Feb-11 13:28N 37°55' E 023°33'0 0.0
2018-Feb-11 12:58N 37°55' E 023°33'0 0.0
2018-Feb-11 12:28N 37°55' E 023°33'0 0.0
2018-Feb-11 11:58N 37°55' E 023°33'0 0.0
2018-Feb-11 11:28N 37°55' E 023°33'0 0.1
2018-Feb-11 10:58N 37°55' E 023°33'0 0.0
2018-Feb-11 10:25N 37°55' E 023°33'0 0.0
2018-Feb-11 09:58N 37°55' E 023°33'0 0.0
2018-Feb-11 09:28N 37°55' E 023°33'0 0.1
2018-Feb-11 08:58N 37°55' E 023°33'0 0.0
2018-Feb-11 08:28N 37°55' E 023°33'0 0.0
2018-Feb-11 07:58N 37°55' E 023°33'0 0.0
2018-Feb-11 07:28N 37°55' E 023°33'0 0.1
2018-Feb-11 06:58N 37°55' E 023°33'0 0.1
2018-Feb-11 06:28N 37°55' E 023°33'0 0.0
2018-Feb-11 05:58N 37°55' E 023°33'0 0.0
2018-Feb-11 05:28N 37°55' E 023°33'0 0.0
2018-Feb-11 04:58N 37°55' E 023°33'0 0.0
2018-Feb-11 04:28N 37°55' E 023°33'0 0.0
2018-Feb-11 03:58N 37°55' E 023°33'0 0.0
2018-Feb-11 03:28N 37°55' E 023°33'0 0.0
2018-Feb-11 02:58N 37°55' E 023°33'0 0.0
2018-Feb-11 02:28N 37°55' E 023°33'0 0.0
2018-Feb-11 01:58N 37°55' E 023°33'0 0.0
2018-Feb-11 01:28N 37°55' E 023°33'0 0.1
2018-Feb-11 00:58N 37°55' E 023°33'0 0.0
2018-Feb-11 00:28N 37°55' E 023°33'0 0.0
2018-Feb-10 23:58N 37°55' E 023°33'0 0.0
2018-Feb-10 23:28N 37°55' E 023°33'0 0.0
2018-Feb-10 22:58N 37°55' E 023°33'0 0.0
2018-Feb-10 22:28N 37°55' E 023°33'0 0.1
2018-Feb-10 21:58N 37°55' E 023°33'0 0.1
2018-Feb-10 21:28N 37°55' E 023°33'0 0.1
2018-Feb-10 20:58N 37°55' E 023°33'0 0.1
2018-Feb-10 20:28N 37°55' E 023°33'0 0.0
2018-Feb-10 19:58N 37°55' E 023°33'0 0.0
2018-Feb-10 19:28N 37°55' E 023°33'0 0.1
2018-Feb-10 18:58N 37°55' E 023°33'0 0.0
2018-Feb-10 18:28N 37°55' E 023°33'0 0.0
2018-Feb-10 17:58N 37°55' E 023°33'0 0.0
2018-Feb-10 17:28N 37°55' E 023°33'0 0.0
2018-Feb-10 16:58N 37°55' E 023°33'0 0.1
2018-Feb-10 16:28N 37°55' E 023°33'0 0.1
2018-Feb-10 15:58N 37°55' E 023°33'0 0.0
2018-Feb-10 15:28N 37°55' E 023°33'0 0.1
2018-Feb-10 14:58N 37°55' E 023°33'0 0.0
2018-Feb-10 14:28N 37°55' E 023°33'0 0.0
2018-Feb-10 13:58N 37°55' E 023°33'0 0.0
2018-Feb-10 13:28N 37°55' E 023°33'0 0.1
2018-Feb-10 12:58N 37°55' E 023°33'0 0.0
2018-Feb-10 12:28N 37°55' E 023°33'0 0.1
2018-Feb-10 11:58N 37°55' E 023°33'0 0.0
2018-Feb-10 11:28N 37°55' E 023°33'0 0.1
2018-Feb-10 10:58N 37°55' E 023°33'0 0.0
2018-Feb-10 10:28N 37°55' E 023°33'0 0.0
2018-Feb-10 09:58N 37°55' E 023°33'0 0.0
2018-Feb-10 09:28N 37°55' E 023°33'0 0.0
2018-Feb-10 08:58N 37°55' E 023°33'0 0.1
2018-Feb-10 08:28N 37°55' E 023°33'0 0.0
2018-Feb-10 07:58N 37°55' E 023°33'0 0.1
2018-Feb-10 07:28N 37°55' E 023°33'0 0.0
2018-Feb-10 06:58N 37°55' E 023°33'0 0.0
2018-Feb-10 06:28N 37°55' E 023°33'0 0.0
2018-Feb-10 05:58N 37°55' E 023°33'0 0.0
2018-Feb-10 05:28N 37°55' E 023°33'0 0.0
2018-Feb-10 04:58N 37°55' E 023°33'0 0.0
2018-Feb-10 04:28N 37°55' E 023°33'0 0.0
2018-Feb-10 03:58N 37°55' E 023°33'0 0.0
2018-Feb-10 03:28N 37°55' E 023°33'0 0.0
2018-Feb-10 02:58N 37°55' E 023°33'0 0.0
2018-Feb-10 02:28N 37°55' E 023°33'0 0.0
2018-Feb-10 01:58N 37°55' E 023°33'0 0.0
2018-Feb-10 01:28N 37°55' E 023°33'0 0.0
2018-Feb-10 00:58N 37°55' E 023°33'0 0.0
2018-Feb-10 00:28N 37°55' E 023°33'0 0.1
2018-Feb-09 23:58N 37°55' E 023°33'0 0.0
2018-Feb-09 23:28N 37°55' E 023°33'0 0.0
2018-Feb-09 22:58N 37°55' E 023°33'0 0.1
2018-Feb-09 22:46N 37°55' E 023°33'12 1.3
2018-Feb-09 13:30N 37°45' E 023°42'612.5
2018-Feb-09 13:00N 37°40' E 023°46'48012.1
2018-Feb-07 21:28N 34°31' E 032°53'  

Dump ship's entire track history